Flight Track Log - Related Links

Times and Time Zones

All times are in EDT time to prevent confusion due to time zone crossing. See the BVN8759 flight status page for this flight to view local times or setup timezone preferences in your user account.

Time Position Orientation Groundspeed Altitude Reporting Facility
EDT Latitude Longitude Course Direction KTS MPH feet Rate Location/Type
Fri 07:05:18 AM 29.9728 -95.3494 305° West 73 84 600  Level Houston Center
Fri 07:06:19 AM 29.9875 -95.3742 305° West 111 128 1,700 1,125 Climbing Houston Center
Fri 07:07:10 AM 29.9994 -95.3978 300° West 99 114 2,700 1,189 Climbing Houston Center
Fri 07:08:10 AM 30.0131 -95.4189 307° West 92 106 3,900 1,026 Climbing Houston Center
Fri 07:08:26 AM 30.0197 -95.4258 318° Northwest 97 112 4,000 98 Climbing Houston Center
Fri 07:09:11 AM 30.0286 -95.4417 303° West 89 102 4,000  Level Houston Center
Fri 07:10:11 AM 30.0544 -95.4783 309° West 110 127 4,000  Level Houston Center
Fri 07:11:12 AM 30.0742 -95.5117 304° West 123 142 4,000  Level Houston Center
Fri 07:11:29 AM 30.0811 -95.5247 302° West 129 148 4,000  Level Houston Center
Fri 07:12:13 AM 30.0969 -95.5461 311° West 128 147 4,000  Level Houston Center
Fri 07:12:29 AM 30.1031 -95.5583 300° West 130 150 4,000  Level Houston Center
Fri 07:13:13 AM 30.1161 -95.5797 305° West 128 147 4,000  Level Houston Center
Fri 07:13:30 AM 30.1228 -95.5922 302° West 131 151 4,000  Level Houston Center
Fri 07:14:14 AM 30.1381 -95.6136 310° West 129 148 4,000  Level Houston Center
Fri 07:14:31 AM 30.1447 -95.6258 302° West 130 150 4,000  Level Houston Center
Fri 07:15:15 AM 30.1581 -95.6478 305° West 129 148 4,000 90 Level Houston Center
Fri 07:15:38 AM 30.1672 -95.6667 299° West 129 148 4,100  Climbing Houston Center
Fri 07:16:15 AM 30.1789 -95.6819 311° West 129 148 4,000  Descending Houston Center
Fri 07:16:38 AM 30.1892 -95.7003 303° West 129 148 4,100  Climbing Houston Center
Fri 07:17:16 AM 30.1994 -95.7161 307° West 128 147 4,000  Descending Houston Center
Fri 07:17:39 AM 30.2086 -95.7319 304° West 125 144 4,100  Climbing Houston Center
Fri 07:18:17 AM 30.2192 -95.7481 307° West 127 146 4,000  Descending Houston Center
Fri 07:18:34 AM 30.2261 -95.7636 297° West 127 146 4,100  Climbing Houston Center
Fri 07:19:18 AM 30.2392 -95.7817 310° West 124 143 4,000  Descending Houston Center
Fri 07:19:35 AM 30.2461 -95.7975 297° West 124 143 4,100  Climbing Houston Center
Fri 07:20:19 AM 30.2583 -95.8150 309° West 124 143 4,000  Descending Houston Center
Fri 07:20:35 AM 30.2658 -95.8314 298° West 123 142 4,100  Climbing Houston Center
Fri 07:21:19 AM 30.2772 -95.8481 308° West 123 142 4,000  Descending Houston Center
Fri 07:21:36 AM 30.2853 -95.8631 302° West 122 140 4,100  Climbing Houston Center
Fri 07:22:20 AM 30.2956 -95.8797 306° West 121 139 4,000  Descending Houston Center
Fri 07:22:37 AM 30.3047 -95.8947 305° West 122 140 4,100  Climbing Houston Center
Fri 07:23:21 AM 30.3192 -95.9175 306° West 120 138 4,000  Descending Houston Center
Fri 07:23:38 AM 30.3247 -95.9286 300° West 122 140 4,100  Climbing Houston Center
Fri 07:24:22 AM 30.3392 -95.9497 308° West 121 139 4,000  Descending Houston Center
Fri 07:24:38 AM 30.3461 -95.9600 308° West 124 143 4,100  Climbing Houston Center
Fri 07:25:23 AM 30.3592 -95.9842 302° West 126 145 4,000 -57 Descending Houston Center
Fri 07:26:24 AM 30.3789 -96.0167 305° West 125 144 4,000 78 Level Houston Center
Fri 07:26:40 AM 30.3836 -96.0283 295° West 125 144 4,100  Climbing Houston Center
Fri 07:27:25 AM 30.3975 -96.0464 312° West 122 140 4,000  Descending Houston Center
Fri 07:27:40 AM 30.4053 -96.0597 304° West 123 142 4,100 98 Climbing Houston Center
Fri 07:28:26 AM 30.4181 -96.0797 307° West 124 143 4,100  Level Houston Center
Fri 07:28:41 AM 30.4247 -96.0939 299° West 126 145 4,100  Level Houston Center
Fri 07:29:27 AM 30.4381 -96.1133 308° West 125 144 4,100  Level Houston Center
Fri 07:29:42 AM 30.4444 -96.1281 297° West 127 146 4,100  Level Houston Center
Fri 07:30:28 AM 30.4586 -96.1478 310° West 129 148 4,100 -470 Level Houston Center
Fri 07:31:37 AM 30.4861 -96.1983 302° West 143 165 3,200 -590 Descending Houston Center
Fri 07:32:30 AM 30.5022 -96.2217 309° West 137 158 2,900 -474 Descending Houston Center
Fri 07:33:31 AM 30.5247 -96.2572 306° West 136 157 2,300 -590 Descending Houston Center

Login

Don't have an account? Register now (free) for customized features, flight alerts, and more!